createdAt,value
2022-11-28T00:00:15.341Z,5.00
2022-11-28T00:04:17.171Z,5.28
2022-11-28T00:08:19.300Z,5.20
2022-11-28T00:12:21.189Z,5.20
2022-11-28T00:16:23.779Z,5.05
2022-11-28T00:20:25.610Z,4.45
2022-11-28T00:24:27.371Z,5.22
2022-11-28T00:28:29.085Z,5.10
2022-11-28T00:32:30.698Z,4.75
2022-11-28T00:36:32.409Z,4.62
2022-11-28T00:40:34.166Z,5.03
2022-11-28T00:44:36.660Z,5.18
2022-11-28T00:48:38.410Z,5.47
2022-11-28T00:52:40.064Z,4.50
2022-11-28T00:56:41.750Z,4.85
2022-11-28T01:00:43.499Z,5.40
2022-11-28T01:04:45.297Z,4.70
2022-11-28T01:08:47.088Z,5.32
2022-11-28T01:12:48.717Z,5.15
2022-11-28T01:16:50.415Z,4.62
2022-11-28T01:20:52.116Z,5.60
2022-11-28T01:24:53.836Z,5.20
2022-11-28T01:28:56.135Z,4.90
2022-11-28T01:32:57.792Z,4.97
2022-11-28T01:37:00.118Z,5.05
2022-11-28T01:41:02.447Z,5.10
2022-11-28T01:45:32.120Z,4.78
2022-11-28T01:49:37.525Z,4.68
2022-11-28T01:53:42.740Z,4.87
2022-11-28T01:57:44.496Z,5.22
2022-11-28T02:01:46.616Z,5.18
2022-11-28T02:05:51.488Z,5.28
2022-11-28T02:09:53.548Z,5.00
2022-11-28T02:14:19.993Z,5.20
2022-11-28T02:18:50.298Z,5.78
2022-11-28T02:22:58.324Z,5.12
2022-11-28T02:27:21.749Z,4.60
2022-11-28T02:31:41.651Z,5.22
2022-11-28T02:36:04.883Z,5.37
2022-11-28T02:40:27.617Z,4.90
2022-11-28T02:44:49.930Z,5.85
2022-11-28T02:49:07.033Z,4.55
2022-11-28T02:53:20.040Z,4.53
2022-11-28T02:57:21.654Z,5.03
2022-11-28T03:01:28.922Z,5.43
2022-11-28T03:05:44.234Z,5.93
2022-11-28T03:10:24.917Z,6.62
2022-11-28T03:14:45.106Z,5.62
2022-11-28T03:19:27.895Z,6.37
2022-11-28T03:23:46.481Z,6.72
2022-11-28T03:27:54.956Z,6.37
2022-11-28T03:32:11.170Z,6.80
2022-11-28T03:36:21.708Z,6.22
2022-11-28T03:40:30.729Z,6.40
2022-11-28T03:44:39.893Z,6.93
2022-11-28T03:48:47.275Z,6.82
2022-11-28T03:52:59.554Z,6.32
2022-11-28T03:57:16.683Z,6.28
2022-11-28T04:01:29.779Z,6.65
2022-11-28T04:05:53.891Z,6.53
2022-11-28T04:10:04.306Z,6.50
2022-11-28T04:14:32.349Z,6.45
2022-11-28T04:18:40.021Z,6.80
2022-11-28T04:22:48.499Z,6.53
2022-11-28T04:26:59.132Z,6.45
2022-11-28T04:31:04.319Z,6.43
2022-11-28T04:35:10.333Z,6.82
2022-11-28T04:39:19.598Z,6.25
2022-11-28T04:43:25.929Z,6.40
2022-11-28T04:47:27.944Z,5.97
2022-11-28T04:52:12.200Z,6.55
2022-11-28T04:56:22.903Z,6.28
2022-11-28T05:00:26.206Z,6.05
2022-11-28T05:04:27.917Z,6.07
2022-11-28T05:08:29.561Z,6.72
2022-11-28T05:12:31.167Z,6.87
2022-11-28T05:16:33.114Z,6.62
2022-11-28T05:20:36.402Z,6.45
2022-11-28T05:24:38.064Z,7.00
2022-11-28T05:28:39.977Z,7.70
2022-11-28T05:32:41.659Z,7.03
2022-11-28T05:36:43.299Z,6.90
2022-11-28T05:40:44.974Z,7.50
2022-11-28T05:44:47.763Z,6.90
2022-11-28T05:48:49.405Z,7.30
2022-11-28T05:52:51.057Z,8.52
2022-11-28T05:56:52.687Z,7.05
2022-11-28T06:00:54.275Z,7.87
2022-11-28T06:04:56.030Z,6.97
2022-11-28T06:08:58.110Z,7.37
2022-11-28T06:12:59.758Z,6.47
2022-11-28T06:17:01.487Z,8.13
2022-11-28T06:21:04.988Z,7.53
2022-11-28T06:25:06.750Z,7.22
2022-11-28T06:29:08.426Z,6.40
2022-11-28T06:33:10.161Z,6.90
2022-11-28T06:37:11.923Z,7.25
2022-11-28T06:41:16.155Z,7.45
2022-11-28T06:45:17.986Z,7.35
2022-11-28T06:49:19.637Z,6.70
2022-11-28T06:53:21.341Z,7.35
2022-11-28T06:57:22.981Z,7.43
2022-11-28T07:01:26.934Z,7.22
2022-11-28T07:05:30.834Z,7.28
2022-11-28T07:09:32.622Z,7.85
2022-11-28T07:13:34.214Z,6.47
2022-11-28T07:17:35.902Z,6.90
2022-11-28T07:21:37.606Z,7.45
2022-11-28T07:25:39.234Z,7.55
2022-11-28T07:29:41.295Z,6.82
2022-11-28T07:33:45.783Z,7.35
2022-11-28T07:37:47.400Z,7.53
2022-11-28T07:41:49.571Z,6.87
2022-11-28T07:46:00.719Z,7.07
2022-11-28T07:50:03.424Z,6.78
2022-11-28T07:54:05.556Z,7.18
2022-11-28T07:58:07.294Z,6.80
2022-11-28T08:02:10.968Z,6.93
2022-11-28T08:06:13.514Z,6.82
2022-11-28T08:10:15.155Z,7.07
2022-11-28T08:14:16.859Z,6.97
2022-11-28T08:18:18.623Z,6.50
2022-11-28T08:22:20.262Z,7.00
2022-11-28T08:26:29.012Z,6.47
2022-11-28T08:30:32.056Z,7.07
2022-11-28T08:34:33.781Z,6.93
2022-11-28T08:38:37.014Z,6.30
2022-11-28T08:42:38.958Z,6.22
2022-11-28T08:46:40.657Z,6.75
2022-11-28T08:50:48.216Z,7.12
2022-11-28T08:54:49.966Z,6.22
2022-11-28T08:58:51.680Z,6.37
2022-11-28T09:02:53.392Z,6.30
2022-11-28T09:06:55.104Z,6.30
2022-11-28T09:10:56.948Z,6.72
2022-11-28T09:14:58.535Z,7.00
2022-11-28T09:19:00.223Z,6.93
2022-11-28T09:23:02.061Z,6.22
2022-11-28T09:27:03.727Z,7.50
2022-11-28T09:31:06.760Z,6.32
2022-11-28T09:35:08.886Z,6.85
2022-11-28T09:39:10.543Z,6.78
2022-11-28T09:43:18.483Z,6.10
2022-11-28T09:47:28.766Z,6.95
2022-11-28T09:52:15.041Z,7.95
2022-11-28T09:56:21.248Z,7.05
2022-11-28T10:00:56.050Z,6.95
2022-11-28T10:05:02.049Z,6.78
2022-11-28T10:09:21.761Z,6.82
2022-11-28T10:13:47.064Z,7.32
2022-11-28T10:18:07.120Z,7.60
2022-11-28T10:22:18.635Z,8.02
2022-11-28T10:26:29.049Z,7.82
2022-11-28T10:30:36.234Z,7.20
2022-11-28T10:39:11.406Z,7.10
2022-11-28T10:43:27.932Z,8.13
2022-11-28T10:47:40.079Z,7.57
2022-11-28T10:51:56.547Z,7.80
2022-11-28T10:56:15.220Z,7.25
2022-11-28T11:00:18.459Z,7.80
2022-11-28T11:04:26.436Z,7.57
2022-11-28T11:08:33.549Z,8.43
2022-11-28T11:12:35.196Z,8.13
2022-11-28T11:16:55.370Z,8.10
2022-11-28T11:21:15.770Z,7.62
2022-11-28T11:25:19.980Z,8.00
2022-11-28T11:29:37.233Z,8.32
2022-11-28T11:33:38.911Z,8.15
2022-11-28T11:37:40.547Z,7.85
2022-11-28T11:41:42.139Z,7.93
2022-11-28T11:45:46.197Z,8.00
2022-11-28T11:50:02.418Z,8.90
2022-11-28T11:54:17.235Z,8.25
2022-11-28T11:58:32.289Z,8.98
2022-11-28T12:02:42.955Z,9.27
2022-11-28T12:06:51.775Z,9.18
2022-11-28T12:11:10.664Z,9.00
2022-11-28T12:15:18.132Z,8.63
2022-11-28T12:19:38.008Z,8.25
2022-11-28T12:24:06.890Z,8.07
2022-11-28T12:28:38.078Z,8.68
2022-11-28T12:32:53.027Z,8.82
2022-11-28T12:37:03.688Z,9.27
2022-11-28T12:41:33.248Z,9.38
2022-11-28T12:45:38.134Z,8.90
2022-11-28T12:50:07.490Z,8.60
2022-11-28T12:54:54.851Z,8.50
2022-11-28T12:58:59.498Z,7.68
2022-11-28T13:03:23.036Z,8.57
2022-11-28T13:07:42.939Z,8.15
2022-11-28T13:12:12.540Z,7.50
2022-11-28T13:16:42.338Z,7.60
2022-11-28T13:21:01.936Z,7.57
2022-11-28T13:25:19.440Z,7.75
2022-11-28T13:33:38.239Z,7.18
2022-11-28T13:43:06.965Z,6.62
2022-11-28T13:47:31.755Z,7.10
2022-11-28T13:51:34.132Z,6.75
2022-11-28T13:56:09.476Z,7.03
2022-11-28T14:00:23.688Z,6.95
2022-11-28T14:04:27.754Z,7.07
2022-11-28T14:08:41.090Z,7.53
2022-11-28T14:12:50.729Z,7.60
2022-11-28T14:17:33.888Z,7.50
2022-11-28T14:21:35.560Z,6.35
2022-11-28T14:25:44.347Z,6.62
2022-11-28T14:29:51.842Z,6.50
2022-11-28T14:33:59.649Z,6.10
2022-11-28T14:38:02.439Z,6.22
2022-11-28T14:42:07.935Z,7.32
2022-11-28T14:46:15.902Z,7.22
2022-11-28T14:50:18.078Z,7.45
2022-11-28T14:54:22.732Z,7.95
2022-11-28T14:58:24.409Z,7.97
2022-11-28T15:02:36.057Z,8.65
2022-11-28T15:06:39.242Z,9.27
2022-11-28T15:11:06.495Z,8.93
2022-11-28T15:15:13.627Z,9.95
2022-11-28T15:19:38.045Z,9.13
2022-11-28T15:23:39.734Z,8.85
2022-11-28T15:27:41.340Z,8.90
2022-11-28T15:31:43.977Z,9.50
2022-11-28T15:35:56.647Z,9.68
2022-11-28T15:40:00.224Z,10.30
2022-11-28T15:44:02.595Z,10.10
2022-11-28T15:48:04.664Z,9.70
2022-11-28T15:52:06.339Z,10.95
2022-11-28T15:56:15.219Z,10.88
2022-11-28T16:00:19.125Z,11.20
2022-11-28T16:04:21.202Z,11.73
2022-11-28T16:08:51.677Z,11.57
2022-11-28T16:13:00.622Z,12.37
2022-11-28T16:17:12.439Z,12.35
2022-11-28T16:21:14.806Z,11.60
2022-11-28T16:25:24.927Z,13.10
2022-11-28T16:29:34.875Z,13.65
2022-11-28T16:33:41.169Z,12.98
2022-11-28T16:37:42.781Z,14.38
2022-11-28T16:41:52.252Z,14.48
2022-11-28T16:46:02.406Z,14.70
2022-11-28T16:50:24.613Z,14.45
2022-11-28T16:54:31.432Z,15.25
2022-11-28T16:58:33.066Z,14.30
2022-11-28T17:02:34.675Z,15.05
2022-11-28T17:06:39.332Z,14.65
2022-11-28T17:10:40.985Z,15.20
2022-11-28T17:14:44.020Z,16.37
2022-11-28T17:18:46.581Z,14.38
2022-11-28T17:22:50.972Z,15.98
2022-11-28T17:26:53.971Z,15.60
2022-11-28T17:30:55.632Z,16.27
2022-11-28T17:34:59.689Z,16.30
2022-11-28T17:39:05.172Z,14.63
2022-11-28T17:43:07.726Z,15.35
2022-11-28T17:47:09.429Z,14.98
2022-11-28T17:51:11.085Z,15.50
2022-11-28T17:55:12.701Z,16.20
2022-11-28T17:59:16.742Z,15.95
2022-11-28T18:03:18.566Z,16.35
2022-11-28T18:07:20.302Z,17.02
2022-11-28T18:11:22.023Z,15.88
2022-11-28T18:15:23.650Z,16.20
2022-11-28T18:19:25.385Z,17.17
2022-11-28T18:23:27.020Z,16.55
2022-11-28T18:27:29.080Z,17.30
2022-11-28T18:31:31.026Z,17.20
2022-11-28T18:35:32.736Z,16.92
2022-11-28T18:39:34.812Z,18.15
2022-11-28T18:43:37.387Z,18.10
2022-11-28T18:47:39.165Z,17.65
2022-11-28T18:51:40.830Z,18.35
2022-11-28T18:55:42.450Z,19.25
2022-11-28T18:59:51.367Z,17.83
2022-11-28T19:04:09.207Z,18.02
2022-11-28T19:08:10.850Z,17.77
2022-11-28T19:12:12.524Z,16.90
2022-11-28T19:16:17.577Z,15.40
2022-11-28T19:20:19.308Z,15.68
2022-11-28T19:24:20.985Z,16.70
2022-11-28T19:28:22.635Z,15.80
2022-11-28T19:32:24.627Z,17.30
2022-11-28T19:36:27.244Z,16.48
2022-11-28T19:40:28.863Z,17.23
2022-11-28T19:44:30.598Z,16.62
2022-11-28T19:48:35.227Z,16.90
2022-11-28T19:52:36.827Z,16.05
2022-11-28T19:56:38.684Z,16.90
2022-11-28T20:00:41.095Z,16.80
2022-11-28T20:04:43.380Z,15.88
2022-11-28T20:08:46.392Z,16.10
2022-11-28T20:12:48.614Z,16.65
2022-11-28T20:16:50.301Z,16.60
2022-11-28T20:20:51.973Z,16.25
2022-11-28T20:24:53.599Z,16.55
2022-11-28T20:28:55.996Z,17.30
2022-11-28T20:32:57.696Z,16.85
2022-11-28T20:36:59.555Z,19.80
2022-11-28T20:41:03.029Z,16.92
2022-11-28T20:45:05.224Z,16.33
2022-11-28T20:49:07.439Z,16.80
2022-11-28T20:53:09.019Z,16.70
2022-11-28T20:57:21.308Z,17.17
2022-11-28T21:01:25.987Z,16.20
2022-11-28T21:05:27.658Z,16.50
2022-11-28T21:09:29.319Z,15.60
2022-11-28T21:13:31.691Z,17.30
2022-11-28T21:17:33.302Z,16.52
2022-11-28T21:21:37.322Z,17.17
2022-11-28T21:25:40.359Z,17.00
2022-11-28T21:29:42.957Z,17.15
2022-11-28T21:33:49.316Z,16.87
2022-11-28T21:37:50.927Z,16.70
2022-11-28T21:41:52.698Z,16.85
2022-11-28T21:45:54.633Z,16.30
2022-11-28T21:49:56.291Z,18.30
2022-11-28T21:53:58.368Z,16.87
2022-11-28T21:58:00.361Z,16.73
2022-11-28T22:02:04.926Z,16.60
2022-11-28T22:06:13.233Z,16.52
2022-11-28T22:10:14.938Z,17.17
2022-11-28T22:14:17.749Z,15.52
2022-11-28T22:18:19.448Z,17.73
2022-11-28T22:22:22.075Z,17.67
2022-11-28T22:26:23.807Z,18.00
2022-11-28T22:30:25.446Z,17.92
2022-11-28T22:34:27.099Z,17.00
2022-11-28T22:38:28.742Z,16.85
2022-11-28T22:42:30.526Z,17.20
2022-11-28T22:46:33.107Z,17.90
2022-11-28T22:50:40.197Z,18.23
2022-11-28T22:58:45.189Z,18.80
2022-11-28T23:02:46.925Z,18.90
2022-11-28T23:06:48.696Z,18.15
2022-11-28T23:10:50.408Z,18.77
2022-11-28T23:14:52.047Z,20.20
2022-11-28T23:18:56.677Z,18.62
2022-11-28T23:22:58.321Z,18.90
2022-11-28T23:27:00.003Z,20.40
2022-11-28T23:31:19.799Z,19.02
2022-11-28T23:35:21.490Z,19.00
2022-11-28T23:39:23.245Z,19.95
2022-11-28T23:43:25.094Z,19.75
2022-11-28T23:47:26.719Z,19.45
2022-11-28T23:51:28.703Z,20.98
2022-11-28T23:55:32.932Z,21.90
2022-11-28T23:59:34.546Z,21.05
